sensor_id;sensor_type;location;lat;lon;timestamp;temperature;humidity
14101;DHT22;7127;49.372;8.166;2022-08-26T00:02:04;26.90;41.30
14101;DHT22;7127;49.372;8.166;2022-08-26T00:04:31;26.90;41.40
14101;DHT22;7127;49.372;8.166;2022-08-26T00:06:59;26.90;41.50
14101;DHT22;7127;49.372;8.166;2022-08-26T00:09:27;26.90;41.50
14101;DHT22;7127;49.372;8.166;2022-08-26T00:11:54;26.90;41.50
14101;DHT22;7127;49.372;8.166;2022-08-26T00:14:22;26.90;41.50
14101;DHT22;7127;49.372;8.166;2022-08-26T00:16:50;26.90;41.70
14101;DHT22;7127;49.372;8.166;2022-08-26T00:19:19;26.90;41.70
14101;DHT22;7127;49.372;8.166;2022-08-26T00:21:47;26.80;41.60
14101;DHT22;7127;49.372;8.166;2022-08-26T00:24:15;26.80;41.70
14101;DHT22;7127;49.372;8.166;2022-08-26T00:26:43;26.80;41.60
14101;DHT22;7127;49.372;8.166;2022-08-26T00:29:11;26.80;41.70
14101;DHT22;7127;49.372;8.166;2022-08-26T00:31:38;26.80;41.70
14101;DHT22;7127;49.372;8.166;2022-08-26T00:34:06;26.70;41.60
14101;DHT22;7127;49.372;8.166;2022-08-26T00:36:33;26.80;41.70
14101;DHT22;7127;49.372;8.166;2022-08-26T00:39:00;26.80;41.70
14101;DHT22;7127;49.372;8.166;2022-08-26T00:41:27;26.70;41.60
14101;DHT22;7127;49.372;8.166;2022-08-26T00:43:56;26.70;41.70
14101;DHT22;7127;49.372;8.166;2022-08-26T00:46:27;26.70;41.90
14101;DHT22;7127;49.372;8.166;2022-08-26T00:49:00;26.70;41.90
14101;DHT22;7127;49.372;8.166;2022-08-26T00:51:28;26.70;41.90
14101;DHT22;7127;49.372;8.166;2022-08-26T00:53:59;26.70;41.90
14101;DHT22;7127;49.372;8.166;2022-08-26T00:56:30;26.60;42.00
14101;DHT22;7127;49.372;8.166;2022-08-26T00:59:01;26.70;42.10
14101;DHT22;7127;49.372;8.166;2022-08-26T01:01:31;26.60;42.10
14101;DHT22;7127;49.372;8.166;2022-08-26T01:03:58;26.60;42.10
14101;DHT22;7127;49.372;8.166;2022-08-26T01:06:26;26.60;42.20
14101;DHT22;7127;49.372;8.166;2022-08-26T01:08:54;26.60;42.20
14101;DHT22;7127;49.372;8.166;2022-08-26T01:11:21;26.60;42.20
14101;DHT22;7127;49.372;8.166;2022-08-26T01:13:51;26.50;42.20
14101;DHT22;7127;49.372;8.166;2022-08-26T01:16:21;26.60;42.40
14101;DHT22;7127;49.372;8.166;2022-08-26T01:18:50;26.50;42.40
14101;DHT22;7127;49.372;8.166;2022-08-26T01:21:25;26.50;42.40
14101;DHT22;7127;49.372;8.166;2022-08-26T01:23:56;26.50;42.50
14101;DHT22;7127;49.372;8.166;2022-08-26T01:26:26;26.50;42.40
14101;DHT22;7127;49.372;8.166;2022-08-26T01:28:57;26.40;42.40
14101;DHT22;7127;49.372;8.166;2022-08-26T01:31:28;26.40;42.40
14101;DHT22;7127;49.372;8.166;2022-08-26T01:34:00;26.40;42.50
14101;DHT22;7127;49.372;8.166;2022-08-26T01:36:28;26.40;42.60
14101;DHT22;7127;49.372;8.166;2022-08-26T01:38:57;26.30;42.50
14101;DHT22;7127;49.372;8.166;2022-08-26T01:41:24;26.30;42.50
14101;DHT22;7127;49.372;8.166;2022-08-26T01:43:53;26.30;42.60
14101;DHT22;7127;49.372;8.166;2022-08-26T01:46:22;26.30;42.70
14101;DHT22;7127;49.372;8.166;2022-08-26T01:48:51;26.30;42.70
14101;DHT22;7127;49.372;8.166;2022-08-26T01:51:21;26.30;42.80
14101;DHT22;7127;49.372;8.166;2022-08-26T01:53:49;26.30;43.50
14101;DHT22;7127;49.372;8.166;2022-08-26T01:56:17;26.20;42.80
14101;DHT22;7127;49.372;8.166;2022-08-26T01:58:47;26.20;42.90
14101;DHT22;7127;49.372;8.166;2022-08-26T02:01:17;26.20;43.00
14101;DHT22;7127;49.372;8.166;2022-08-26T02:03:49;26.10;43.00
14101;DHT22;7127;49.372;8.166;2022-08-26T02:06:18;26.10;43.10
14101;DHT22;7127;49.372;8.166;2022-08-26T02:08:49;26.10;43.10
14101;DHT22;7127;49.372;8.166;2022-08-26T02:11:19;26.10;43.10
14101;DHT22;7127;49.372;8.166;2022-08-26T02:13:49;26.00;43.20
14101;DHT22;7127;49.372;8.166;2022-08-26T02:16:20;26.00;43.30
14101;DHT22;7127;49.372;8.166;2022-08-26T02:18:48;26.00;43.50
14101;DHT22;7127;49.372;8.166;2022-08-26T02:21:16;25.90;43.50
14101;DHT22;7127;49.372;8.166;2022-08-26T02:23:44;25.90;43.60
14101;DHT22;7127;49.372;8.166;2022-08-26T02:26:13;25.80;43.70
14101;DHT22;7127;49.372;8.166;2022-08-26T02:28:53;25.80;43.80
14101;DHT22;7127;49.372;8.166;2022-08-26T02:31:22;25.80;44.00
14101;DHT22;7127;49.372;8.166;2022-08-26T02:33:49;25.80;43.70
14101;DHT22;7127;49.372;8.166;2022-08-26T02:36:19;25.80;43.80
14101;DHT22;7127;49.372;8.166;2022-08-26T02:38:46;25.80;43.90
14101;DHT22;7127;49.372;8.166;2022-08-26T02:41:13;25.80;44.00
14101;DHT22;7127;49.372;8.166;2022-08-26T02:43:42;25.80;44.00
14101;DHT22;7127;49.372;8.166;2022-08-26T02:46:09;25.80;44.10
14101;DHT22;7127;49.372;8.166;2022-08-26T02:48:36;25.70;44.00
14101;DHT22;7127;49.372;8.166;2022-08-26T02:51:04;25.80;44.20
14101;DHT22;7127;49.372;8.166;2022-08-26T02:53:31;25.70;44.10
14101;DHT22;7127;49.372;8.166;2022-08-26T02:55:58;25.70;44.00
14101;DHT22;7127;49.372;8.166;2022-08-26T02:58:25;25.70;44.10
14101;DHT22;7127;49.372;8.166;2022-08-26T03:00:53;25.70;44.10
14101;DHT22;7127;49.372;8.166;2022-08-26T03:03:20;25.70;44.10
14101;DHT22;7127;49.372;8.166;2022-08-26T03:05:47;25.80;44.20
14101;DHT22;7127;49.372;8.166;2022-08-26T03:08:15;25.70;44.10
14101;DHT22;7127;49.372;8.166;2022-08-26T03:10:42;25.70;44.20
14101;DHT22;7127;49.372;8.166;2022-08-26T03:13:11;25.70;44.20
14101;DHT22;7127;49.372;8.166;2022-08-26T03:15:38;25.70;44.20
14101;DHT22;7127;49.372;8.166;2022-08-26T03:18:07;25.60;44.10
14101;DHT22;7127;49.372;8.166;2022-08-26T03:20:34;25.60;44.30
14101;DHT22;7127;49.372;8.166;2022-08-26T03:23:01;25.60;44.30
14101;DHT22;7127;49.372;8.166;2022-08-26T03:25:28;25.60;44.30
14101;DHT22;7127;49.372;8.166;2022-08-26T03:27:55;25.60;44.30
14101;DHT22;7127;49.372;8.166;2022-08-26T03:30:22;25.60;44.50
14101;DHT22;7127;49.372;8.166;2022-08-26T03:33:08;25.60;44.50
14101;DHT22;7127;49.372;8.166;2022-08-26T03:35:37;25.50;44.40
14101;DHT22;7127;49.372;8.166;2022-08-26T03:38:05;25.50;44.50
14101;DHT22;7127;49.372;8.166;2022-08-26T03:40:34;25.50;44.60
14101;DHT22;7127;49.372;8.166;2022-08-26T03:43:01;25.50;44.70
14101;DHT22;7127;49.372;8.166;2022-08-26T03:45:28;25.50;44.70
14101;DHT22;7127;49.372;8.166;2022-08-26T03:47:55;25.40;44.70
14101;DHT22;7127;49.372;8.166;2022-08-26T03:50:24;25.40;44.70
14101;DHT22;7127;49.372;8.166;2022-08-26T03:52:52;25.40;44.70
14101;DHT22;7127;49.372;8.166;2022-08-26T03:55:22;25.40;44.80
14101;DHT22;7127;49.372;8.166;2022-08-26T03:57:49;25.40;44.80
14101;DHT22;7127;49.372;8.166;2022-08-26T04:00:17;25.40;44.80
14101;DHT22;7127;49.372;8.166;2022-08-26T04:02:47;25.30;44.80
14101;DHT22;7127;49.372;8.166;2022-08-26T04:05:17;25.40;44.90
14101;DHT22;7127;49.372;8.166;2022-08-26T04:07:46;25.30;44.90
14101;DHT22;7127;49.372;8.166;2022-08-26T04:10:14;25.30;45.00
14101;DHT22;7127;49.372;8.166;2022-08-26T04:12:42;25.30;45.10
14101;DHT22;7127;49.372;8.166;2022-08-26T04:15:13;25.30;45.10
14101;DHT22;7127;49.372;8.166;2022-08-26T04:17:40;25.30;45.10
14101;DHT22;7127;49.372;8.166;2022-08-26T04:20:08;25.30;45.10
14101;DHT22;7127;49.372;8.166;2022-08-26T04:22:38;25.30;45.20
14101;DHT22;7127;49.372;8.166;2022-08-26T04:25:08;25.20;45.10
14101;DHT22;7127;49.372;8.166;2022-08-26T04:27:35;25.30;45.20
14101;DHT22;7127;49.372;8.166;2022-08-26T04:30:03;25.20;45.20
14101;DHT22;7127;49.372;8.166;2022-08-26T04:32:30;25.20;45.20
14101;DHT22;7127;49.372;8.166;2022-08-26T04:34:57;25.20;45.20
14101;DHT22;7127;49.372;8.166;2022-08-26T04:37:24;25.20;45.20
14101;DHT22;7127;49.372;8.166;2022-08-26T04:39:52;25.20;45.30
14101;DHT22;7127;49.372;8.166;2022-08-26T04:42:20;25.20;45.30
14101;DHT22;7127;49.372;8.166;2022-08-26T04:44:47;25.20;45.40
14101;DHT22;7127;49.372;8.166;2022-08-26T04:47:14;25.20;45.40
14101;DHT22;7127;49.372;8.166;2022-08-26T04:49:41;25.20;45.40
14101;DHT22;7127;49.372;8.166;2022-08-26T04:52:08;25.20;45.40
14101;DHT22;7127;49.372;8.166;2022-08-26T04:54:35;25.20;45.40
14101;DHT22;7127;49.372;8.166;2022-08-26T04:57:02;25.20;45.40
14101;DHT22;7127;49.372;8.166;2022-08-26T04:59:31;25.20;45.40
14101;DHT22;7127;49.372;8.166;2022-08-26T05:01:58;25.20;45.50
14101;DHT22;7127;49.372;8.166;2022-08-26T05:04:26;25.10;45.40
14101;DHT22;7127;49.372;8.166;2022-08-26T05:06:53;25.10;45.40
14101;DHT22;7127;49.372;8.166;2022-08-26T05:09:20;25.10;45.50
14101;DHT22;7127;49.372;8.166;2022-08-26T05:11:47;25.10;45.50
14101;DHT22;7127;49.372;8.166;2022-08-26T05:14:14;25.10;45.50
14101;DHT22;7127;49.372;8.166;2022-08-26T05:16:42;25.10;45.50
14101;DHT22;7127;49.372;8.166;2022-08-26T05:19:09;25.20;45.60
14101;DHT22;7127;49.372;8.166;2022-08-26T05:21:37;25.20;45.80
14101;DHT22;7127;49.372;8.166;2022-08-26T05:24:05;25.20;45.80
14101;DHT22;7127;49.372;8.166;2022-08-26T05:26:32;25.20;45.80
14101;DHT22;7127;49.372;8.166;2022-08-26T05:28:59;25.20;45.80
14101;DHT22;7127;49.372;8.166;2022-08-26T05:31:28;25.20;45.80
14101;DHT22;7127;49.372;8.166;2022-08-26T05:33:57;25.20;45.80
14101;DHT22;7127;49.372;8.166;2022-08-26T05:36:27;25.30;45.80
14101;DHT22;7127;49.372;8.166;2022-08-26T05:38:55;25.30;45.80
14101;DHT22;7127;49.372;8.166;2022-08-26T05:41:24;25.30;45.80
14101;DHT22;7127;49.372;8.166;2022-08-26T05:43:54;25.40;45.80
14101;DHT22;7127;49.372;8.166;2022-08-26T05:46:21;25.40;45.80
14101;DHT22;7127;49.372;8.166;2022-08-26T05:48:48;25.40;45.80
14101;DHT22;7127;49.372;8.166;2022-08-26T05:51:17;25.50;45.80
14101;DHT22;7127;49.372;8.166;2022-08-26T05:53:45;25.50;45.70
14101;DHT22;7127;49.372;8.166;2022-08-26T05:56:12;25.60;45.70
14101;DHT22;7127;49.372;8.166;2022-08-26T05:58:41;25.60;45.70
14101;DHT22;7127;49.372;8.166;2022-08-26T06:01:10;25.60;45.70
14101;DHT22;7127;49.372;8.166;2022-08-26T06:03:39;25.70;45.70
14101;DHT22;7127;49.372;8.166;2022-08-26T06:06:10;25.70;45.70
14101;DHT22;7127;49.372;8.166;2022-08-26T06:08:40;25.70;45.70
14101;DHT22;7127;49.372;8.166;2022-08-26T06:11:09;25.80;45.70
14101;DHT22;7127;49.372;8.166;2022-08-26T06:13:38;25.80;45.70
14101;DHT22;7127;49.372;8.166;2022-08-26T06:16:07;25.80;45.70
14101;DHT22;7127;49.372;8.166;2022-08-26T06:18:37;25.90;46.30
14101;DHT22;7127;49.372;8.166;2022-08-26T06:21:14;25.90;45.70
14101;DHT22;7127;49.372;8.166;2022-08-26T06:23:43;25.90;46.40
14101;DHT22;7127;49.372;8.166;2022-08-26T06:26:28;26.00;45.70
14101;DHT22;7127;49.372;8.166;2022-08-26T06:28:56;26.00;45.60
14101;DHT22;7127;49.372;8.166;2022-08-26T06:31:23;26.10;45.70
14101;DHT22;7127;49.372;8.166;2022-08-26T06:33:51;26.10;45.70
14101;DHT22;7127;49.372;8.166;2022-08-26T06:36:20;26.20;45.70
14101;DHT22;7127;49.372;8.166;2022-08-26T06:38:50;26.20;45.70
14101;DHT22;7127;49.372;8.166;2022-08-26T06:41:18;26.30;45.70
14101;DHT22;7127;49.372;8.166;2022-08-26T06:43:46;26.30;45.70
14101;DHT22;7127;49.372;8.166;2022-08-26T06:46:16;26.40;45.70
14101;DHT22;7127;49.372;8.166;2022-08-26T06:48:43;26.50;45.80
14101;DHT22;7127;49.372;8.166;2022-08-26T06:51:13;26.50;45.70
14101;DHT22;7127;49.372;8.166;2022-08-26T06:53:41;26.60;45.70
14101;DHT22;7127;49.372;8.166;2022-08-26T06:56:12;26.60;45.50
14101;DHT22;7127;49.372;8.166;2022-08-26T06:58:41;26.70;45.50
14101;DHT22;7127;49.372;8.166;2022-08-26T07:01:14;26.80;45.50
14101;DHT22;7127;49.372;8.166;2022-08-26T07:03:41;26.80;45.50
14101;DHT22;7127;49.372;8.166;2022-08-26T07:06:08;26.90;45.30
14101;DHT22;7127;49.372;8.166;2022-08-26T07:08:35;26.90;45.30
14101;DHT22;7127;49.372;8.166;2022-08-26T07:11:04;26.90;45.20
14101;DHT22;7127;49.372;8.166;2022-08-26T07:13:33;26.90;45.20
14101;DHT22;7127;49.372;8.166;2022-08-26T07:16:02;27.10;45.30
14101;DHT22;7127;49.372;8.166;2022-08-26T07:18:29;27.00;45.10
14101;DHT22;7127;49.372;8.166;2022-08-26T07:20:56;27.10;45.10
14101;DHT22;7127;49.372;8.166;2022-08-26T07:23:23;27.20;45.10
14101;DHT22;7127;49.372;8.166;2022-08-26T07:25:50;27.30;45.10
14101;DHT22;7127;49.372;8.166;2022-08-26T07:28:17;27.30;45.10
14101;DHT22;7127;49.372;8.166;2022-08-26T07:30:46;27.40;45.10
14101;DHT22;7127;49.372;8.166;2022-08-26T07:33:13;27.50;44.90
14101;DHT22;7127;49.372;8.166;2022-08-26T07:35:41;27.60;44.80
14101;DHT22;7127;49.372;8.166;2022-08-26T07:38:09;27.70;44.70
14101;DHT22;7127;49.372;8.166;2022-08-26T07:40:36;27.80;44.60
14101;DHT22;7127;49.372;8.166;2022-08-26T07:43:03;27.90;44.40
14101;DHT22;7127;49.372;8.166;2022-08-26T07:45:30;27.90;44.20
14101;DHT22;7127;49.372;8.166;2022-08-26T07:47:59;28.10;44.20
14101;DHT22;7127;49.372;8.166;2022-08-26T07:50:26;28.20;44.00
14101;DHT22;7127;49.372;8.166;2022-08-26T07:52:53;28.20;43.80
14101;DHT22;7127;49.372;8.166;2022-08-26T07:55:21;28.30;43.70
14101;DHT22;7127;49.372;8.166;2022-08-26T07:57:48;28.30;44.30
14101;DHT22;7127;49.372;8.166;2022-08-26T08:00:16;28.40;43.60
14101;DHT22;7127;49.372;8.166;2022-08-26T08:02:43;28.50;43.60
14101;DHT22;7127;49.372;8.166;2022-08-26T08:05:14;28.60;43.50
14101;DHT22;7127;49.372;8.166;2022-08-26T08:07:42;28.60;43.40
14101;DHT22;7127;49.372;8.166;2022-08-26T08:10:12;28.60;43.20
14101;DHT22;7127;49.372;8.166;2022-08-26T08:12:40;28.70;43.10
14101;DHT22;7127;49.372;8.166;2022-08-26T08:15:08;28.80;43.00
14101;DHT22;7127;49.372;8.166;2022-08-26T08:17:38;28.80;43.50
14101;DHT22;7127;49.372;8.166;2022-08-26T08:20:06;28.90;42.90
14101;DHT22;7127;49.372;8.166;2022-08-26T08:22:35;29.00;43.00
14101;DHT22;7127;49.372;8.166;2022-08-26T08:25:02;29.10;43.00
14101;DHT22;7127;49.372;8.166;2022-08-26T08:27:32;29.10;42.80
14101;DHT22;7127;49.372;8.166;2022-08-26T08:30:00;29.30;42.80
14101;DHT22;7127;49.372;8.166;2022-08-26T08:32:27;29.30;42.70
14101;DHT22;7127;49.372;8.166;2022-08-26T08:34:55;29.40;42.60
14101;DHT22;7127;49.372;8.166;2022-08-26T08:37:23;29.50;42.50
14101;DHT22;7127;49.372;8.166;2022-08-26T08:39:51;29.60;42.40
14101;DHT22;7127;49.372;8.166;2022-08-26T08:42:42;29.70;42.30
14101;DHT22;7127;49.372;8.166;2022-08-26T08:45:12;29.80;42.20
14101;DHT22;7127;49.372;8.166;2022-08-26T08:47:45;29.80;42.00
14101;DHT22;7127;49.372;8.166;2022-08-26T08:50:23;29.90;41.90
14101;DHT22;7127;49.372;8.166;2022-08-26T08:52:56;29.90;41.70
14101;DHT22;7127;49.372;8.166;2022-08-26T08:55:30;30.00;41.70
14101;DHT22;7127;49.372;8.166;2022-08-26T08:58:04;30.00;41.60
14101;DHT22;7127;49.372;8.166;2022-08-26T09:00:36;30.10;41.50
14101;DHT22;7127;49.372;8.166;2022-08-26T09:03:10;30.10;41.40
14101;DHT22;7127;49.372;8.166;2022-08-26T09:05:45;30.10;41.20
14101;DHT22;7127;49.372;8.166;2022-08-26T09:08:21;30.20;41.20
14101;DHT22;7127;49.372;8.166;2022-08-26T09:10:53;30.30;41.10
14101;DHT22;7127;49.372;8.166;2022-08-26T09:13:22;30.30;41.10
14101;DHT22;7127;49.372;8.166;2022-08-26T09:15:56;30.40;41.10
14101;DHT22;7127;49.372;8.166;2022-08-26T09:21:19;30.50;40.90
14101;DHT22;7127;49.372;8.166;2022-08-26T09:23:48;30.60;41.00
14101;DHT22;7127;49.372;8.166;2022-08-26T09:26:18;30.60;40.90
14101;DHT22;7127;49.372;8.166;2022-08-26T09:28:47;30.60;40.80
14101;DHT22;7127;49.372;8.166;2022-08-26T09:31:21;30.70;40.90
14101;DHT22;7127;49.372;8.166;2022-08-26T09:34:06;30.70;40.80
14101;DHT22;7127;49.372;8.166;2022-08-26T09:36:36;30.80;40.70
14101;DHT22;7127;49.372;8.166;2022-08-26T09:39:04;30.80;40.60
14101;DHT22;7127;49.372;8.166;2022-08-26T09:41:37;30.80;40.40
14101;DHT22;7127;49.372;8.166;2022-08-26T09:44:15;30.90;40.40
14101;DHT22;7127;49.372;8.166;2022-08-26T09:46:50;31.00;40.30
14101;DHT22;7127;49.372;8.166;2022-08-26T09:49:32;31.00;40.30
14101;DHT22;7127;49.372;8.166;2022-08-26T09:52:19;31.00;40.30
14101;DHT22;7127;49.372;8.166;2022-08-26T09:55:01;31.10;40.20
14101;DHT22;7127;49.372;8.166;2022-08-26T09:57:31;31.10;40.20
14101;DHT22;7127;49.372;8.166;2022-08-26T09:59:59;31.10;40.10
14101;DHT22;7127;49.372;8.166;2022-08-26T10:02:36;31.20;40.20
14101;DHT22;7127;49.372;8.166;2022-08-26T10:05:08;31.30;40.10
14101;DHT22;7127;49.372;8.166;2022-08-26T10:07:44;31.30;40.00
14101;DHT22;7127;49.372;8.166;2022-08-26T10:10:19;31.30;39.80
14101;DHT22;7127;49.372;8.166;2022-08-26T10:12:55;31.40;39.70
14101;DHT22;7127;49.372;8.166;2022-08-26T10:15:25;31.40;39.70
14101;DHT22;7127;49.372;8.166;2022-08-26T10:18:00;31.50;39.70
14101;DHT22;7127;49.372;8.166;2022-08-26T10:20:33;31.50;39.40
14101;DHT22;7127;49.372;8.166;2022-08-26T10:23:05;31.50;39.40
14101;DHT22;7127;49.372;8.166;2022-08-26T10:25:55;31.60;39.30
14101;DHT22;7127;49.372;8.166;2022-08-26T10:28:36;31.60;39.30
14101;DHT22;7127;49.372;8.166;2022-08-26T10:31:17;31.70;39.30
14101;DHT22;7127;49.372;8.166;2022-08-26T10:33:45;31.80;39.20
14101;DHT22;7127;49.372;8.166;2022-08-26T10:36:16;31.80;39.00
14101;DHT22;7127;49.372;8.166;2022-08-26T10:38:58;31.80;39.10
14101;DHT22;7127;49.372;8.166;2022-08-26T10:41:31;31.90;39.20
14101;DHT22;7127;49.372;8.166;2022-08-26T10:44:02;32.00;39.50
14101;DHT22;7127;49.372;8.166;2022-08-26T10:46:36;32.00;38.90
14101;DHT22;7127;49.372;8.166;2022-08-26T10:49:08;32.10;38.80
14101;DHT22;7127;49.372;8.166;2022-08-26T10:51:39;32.10;38.70
14101;DHT22;7127;49.372;8.166;2022-08-26T10:54:11;32.10;38.20
14101;DHT22;7127;49.372;8.166;2022-08-26T10:56:45;32.20;38.20
14101;DHT22;7127;49.372;8.166;2022-08-26T10:59:22;32.30;38.30
14101;DHT22;7127;49.372;8.166;2022-08-26T11:01:58;32.30;38.10
14101;DHT22;7127;49.372;8.166;2022-08-26T11:04:41;32.30;38.00
14101;DHT22;7127;49.372;8.166;2022-08-26T11:07:31;32.40;37.90
14101;DHT22;7127;49.372;8.166;2022-08-26T11:10:00;32.40;37.80
14101;DHT22;7127;49.372;8.166;2022-08-26T11:12:50;32.40;37.80
14101;DHT22;7127;49.372;8.166;2022-08-26T11:18:43;32.50;37.60
14101;DHT22;7127;49.372;8.166;2022-08-26T11:24:38;32.60;37.50
14101;DHT22;7127;49.372;8.166;2022-08-26T11:27:10;32.80;37.40
14101;DHT22;7127;49.372;8.166;2022-08-26T11:30:00;32.80;36.80
14101;DHT22;7127;49.372;8.166;2022-08-26T11:32:46;32.80;36.60
14101;DHT22;7127;49.372;8.166;2022-08-26T11:35:45;32.80;36.70
14101;DHT22;7127;49.372;8.166;2022-08-26T11:38:16;32.90;36.80
14101;DHT22;7127;49.372;8.166;2022-08-26T11:40:44;32.90;36.90
14101;DHT22;7127;49.372;8.166;2022-08-26T11:43:23;33.00;36.90
14101;DHT22;7127;49.372;8.166;2022-08-26T11:45:58;33.00;36.70
14101;DHT22;7127;49.372;8.166;2022-08-26T11:48:28;33.10;36.60
14101;DHT22;7127;49.372;8.166;2022-08-26T11:51:00;33.10;36.60
14101;DHT22;7127;49.372;8.166;2022-08-26T11:53:29;33.20;36.50
14101;DHT22;7127;49.372;8.166;2022-08-26T11:55:59;33.20;36.50
14101;DHT22;7127;49.372;8.166;2022-08-26T11:58:28;33.20;36.20
14101;DHT22;7127;49.372;8.166;2022-08-26T12:00:58;33.30;36.40
14101;DHT22;7127;49.372;8.166;2022-08-26T12:03:32;33.40;36.30
14101;DHT22;7127;49.372;8.166;2022-08-26T12:06:10;33.50;36.00
14101;DHT22;7127;49.372;8.166;2022-08-26T12:08:41;33.50;36.10
14101;DHT22;7127;49.372;8.166;2022-08-26T12:11:10;33.60;35.80
14101;DHT22;7127;49.372;8.166;2022-08-26T12:13:38;33.60;35.80
14101;DHT22;7127;49.372;8.166;2022-08-26T12:16:07;33.70;35.80
14101;DHT22;7127;49.372;8.166;2022-08-26T12:18:36;33.70;35.60
14101;DHT22;7127;49.372;8.166;2022-08-26T12:21:12;33.80;35.60
14101;DHT22;7127;49.372;8.166;2022-08-26T12:23:43;33.90;35.50
14101;DHT22;7127;49.372;8.166;2022-08-26T12:26:18;33.90;35.60
14101;DHT22;7127;49.372;8.166;2022-08-26T12:28:51;34.00;34.80
14101;DHT22;7127;49.372;8.166;2022-08-26T12:31:21;34.00;34.70
14101;DHT22;7127;49.372;8.166;2022-08-26T12:33:49;34.00;34.40
14101;DHT22;7127;49.372;8.166;2022-08-26T12:36:26;34.00;34.50
14101;DHT22;7127;49.372;8.166;2022-08-26T12:38:54;34.00;34.40
14101;DHT22;7127;49.372;8.166;2022-08-26T12:41:52;33.90;34.60
14101;DHT22;7127;49.372;8.166;2022-08-26T12:44:43;33.90;34.80
14101;DHT22;7127;49.372;8.166;2022-08-26T12:47:19;34.00;34.30
14101;DHT22;7127;49.372;8.166;2022-08-26T12:49:48;34.00;34.60
14101;DHT22;7127;49.372;8.166;2022-08-26T12:52:22;33.90;34.50
14101;DHT22;7127;49.372;8.166;2022-08-26T12:54:56;33.90;34.40
14101;DHT22;7127;49.372;8.166;2022-08-26T12:57:29;33.90;34.30
14101;DHT22;7127;49.372;8.166;2022-08-26T13:03:03;33.80;34.40
14101;DHT22;7127;49.372;8.166;2022-08-26T13:05:52;33.80;34.40
14101;DHT22;7127;49.372;8.166;2022-08-26T13:08:25;33.80;34.30
14101;DHT22;7127;49.372;8.166;2022-08-26T13:11:02;33.80;34.20
14101;DHT22;7127;49.372;8.166;2022-08-26T13:13:29;33.70;34.10
14101;DHT22;7127;49.372;8.166;2022-08-26T13:15:56;33.70;34.20
14101;DHT22;7127;49.372;8.166;2022-08-26T13:18:24;33.60;34.10
14101;DHT22;7127;49.372;8.166;2022-08-26T13:20:53;33.60;34.30
14101;DHT22;7127;49.372;8.166;2022-08-26T13:23:20;33.60;34.40
14101;DHT22;7127;49.372;8.166;2022-08-26T13:25:48;33.50;34.30
14101;DHT22;7127;49.372;8.166;2022-08-26T13:28:15;33.50;34.40
14101;DHT22;7127;49.372;8.166;2022-08-26T13:30:45;33.50;34.60
14101;DHT22;7127;49.372;8.166;2022-08-26T13:33:14;33.50;35.20
14101;DHT22;7127;49.372;8.166;2022-08-26T13:35:43;33.40;34.70
14101;DHT22;7127;49.372;8.166;2022-08-26T13:38:11;33.40;34.90
14101;DHT22;7127;49.372;8.166;2022-08-26T13:40:41;33.30;35.30
14101;DHT22;7127;49.372;8.166;2022-08-26T13:43:09;33.40;36.00
14101;DHT22;7127;49.372;8.166;2022-08-26T13:45:37;33.40;36.20
14101;DHT22;7127;49.372;8.166;2022-08-26T13:48:04;33.30;36.60
14101;DHT22;7127;49.372;8.166;2022-08-26T13:50:32;33.30;36.70
14101;DHT22;7127;49.372;8.166;2022-08-26T13:53:00;33.30;36.90
14101;DHT22;7127;49.372;8.166;2022-08-26T13:55:29;33.30;37.20
14101;DHT22;7127;49.372;8.166;2022-08-26T13:57:56;33.30;37.30
14101;DHT22;7127;49.372;8.166;2022-08-26T14:00:23;33.30;37.30
14101;DHT22;7127;49.372;8.166;2022-08-26T14:02:50;33.30;36.90
14101;DHT22;7127;49.372;8.166;2022-08-26T14:05:18;33.30;36.80
14101;DHT22;7127;49.372;8.166;2022-08-26T14:07:45;33.40;36.80
14101;DHT22;7127;49.372;8.166;2022-08-26T14:10:12;33.40;36.30
14101;DHT22;7127;49.372;8.166;2022-08-26T14:12:40;33.50;36.10
14101;DHT22;7127;49.372;8.166;2022-08-26T14:15:09;33.50;36.10
14101;DHT22;7127;49.372;8.166;2022-08-26T14:17:36;33.60;36.60
14101;DHT22;7127;49.372;8.166;2022-08-26T14:20:06;33.60;36.30
14101;DHT22;7127;49.372;8.166;2022-08-26T14:22:42;33.70;36.20
14101;DHT22;7127;49.372;8.166;2022-08-26T14:25:11;33.60;36.00
14101;DHT22;7127;49.372;8.166;2022-08-26T14:27:40;33.70;36.00
14101;DHT22;7127;49.372;8.166;2022-08-26T14:30:09;33.70;36.00
14101;DHT22;7127;49.372;8.166;2022-08-26T14:32:39;33.60;36.00
14101;DHT22;7127;49.372;8.166;2022-08-26T14:35:08;33.70;35.80
14101;DHT22;7127;49.372;8.166;2022-08-26T14:37:36;33.60;35.60
14101;DHT22;7127;49.372;8.166;2022-08-26T14:40:04;33.60;35.50
14101;DHT22;7127;49.372;8.166;2022-08-26T14:42:31;33.60;35.10
14101;DHT22;7127;49.372;8.166;2022-08-26T14:45:03;33.50;35.10
14101;DHT22;7127;49.372;8.166;2022-08-26T14:47:34;33.50;35.00
14101;DHT22;7127;49.372;8.166;2022-08-26T14:50:01;33.50;35.10
14101;DHT22;7127;49.372;8.166;2022-08-26T14:52:28;33.50;35.10
14101;DHT22;7127;49.372;8.166;2022-08-26T14:55:15;33.50;35.10
14101;DHT22;7127;49.372;8.166;2022-08-26T14:57:41;33.50;35.10
14101;DHT22;7127;49.372;8.166;2022-08-26T15:00:11;33.50;35.10
14101;DHT22;7127;49.372;8.166;2022-08-26T15:02:38;33.50;35.00
14101;DHT22;7127;49.372;8.166;2022-08-26T15:05:06;33.50;34.90
14101;DHT22;7127;49.372;8.166;2022-08-26T15:07:35;33.40;35.00
14101;DHT22;7127;49.372;8.166;2022-08-26T15:10:04;33.30;34.90
14101;DHT22;7127;49.372;8.166;2022-08-26T15:12:31;33.20;35.10
14101;DHT22;7127;49.372;8.166;2022-08-26T15:15:03;33.10;35.00
14101;DHT22;7127;49.372;8.166;2022-08-26T15:17:31;33.00;34.90
14101;DHT22;7127;49.372;8.166;2022-08-26T15:19:59;32.90;34.90
14101;DHT22;7127;49.372;8.166;2022-08-26T15:22:26;32.90;34.70
14101;DHT22;7127;49.372;8.166;2022-08-26T15:24:53;32.80;34.30
14101;DHT22;7127;49.372;8.166;2022-08-26T15:27:22;32.70;34.40
14101;DHT22;7127;49.372;8.166;2022-08-26T15:29:49;32.60;34.50
14101;DHT22;7127;49.372;8.166;2022-08-26T15:32:16;32.50;34.40
14101;DHT22;7127;49.372;8.166;2022-08-26T15:40:27;32.20;34.40
14101;DHT22;7127;49.372;8.166;2022-08-26T15:43:03;32.10;34.10
14101;DHT22;7127;49.372;8.166;2022-08-26T15:45:31;32.10;34.40
14101;DHT22;7127;49.372;8.166;2022-08-26T15:51:00;31.90;34.60
14101;DHT22;7127;49.372;8.166;2022-08-26T15:56:05;31.80;35.00
14101;DHT22;7127;49.372;8.166;2022-08-26T15:58:32;31.80;35.40
14101;DHT22;7127;49.372;8.166;2022-08-26T16:00:59;31.70;35.90
14101;DHT22;7127;49.372;8.166;2022-08-26T16:03:26;31.60;36.10
14101;DHT22;7127;49.372;8.166;2022-08-26T16:05:53;31.50;36.60
14101;DHT22;7127;49.372;8.166;2022-08-26T16:08:20;31.50;37.00
14101;DHT22;7127;49.372;8.166;2022-08-26T16:10:48;31.40;37.40
14101;DHT22;7127;49.372;8.166;2022-08-26T16:13:17;31.30;37.70
14101;DHT22;7127;49.372;8.166;2022-08-26T16:15:44;31.20;37.90
14101;DHT22;7127;49.372;8.166;2022-08-26T16:18:12;31.10;37.80
14101;DHT22;7127;49.372;8.166;2022-08-26T16:20:46;31.10;38.00
14101;DHT22;7127;49.372;8.166;2022-08-26T16:23:14;31.00;38.20
14101;DHT22;7127;49.372;8.166;2022-08-26T16:25:41;31.00;38.40
14101;DHT22;7127;49.372;8.166;2022-08-26T16:28:08;30.90;38.60